Date,TemperatureHighF,TemperatureAvgF,TemperatureLowF,DewpointHighF,DewpointAvgF,DewpointLowF,HumidityHigh,HumidityAvg,HumidityLow,PressureMaxIn,PressureMinIn,WindSpeedMaxMPH,WindSpeedAvgMPH,GustSpeedMaxMPH,PrecipitationSumIn
2013-3-2,51,44,33,36,34,30,96,69,45,29.94,29.85,8,2,14,0.00
2013-3-3,49,40,32,35,28,24,98,68,38,30.02,29.90,6,1,14,0.00
2013-3-4,56,40,28,33,24,15,88,58,22,30.18,30.01,5,1,15,0.00
2013-3-5,68,53,35,55,42,33,96,70,33,30.15,29.69,5,1,13,0.00
2013-3-6,62,49,42,53,30,22,79,48,34,30.08,29.67,14,4,24,0.00
2013-3-7,60,45,32,36,31,28,91,61,32,30.23,30.08,9,1,11,0.00
2013-3-8,60,45,32,34,29,25,90,59,27,30.30,30.17,4,1,12,0.00
2013-3-9,66,48,33,42,35,29,93,63,32,30.34,30.24,4,0,8,0.00
2013-3-10,64,49,34,46,34,20,97,64,20,30.32,30.24,6,1,11,0.00
2013-3-11,74,58,40,60,51,36,97,78,50,30.24,29.94,6,1,8,0.00
2013-3-12,73,65,51,64,60,48,97,85,64,29.95,29.81,5,0,12,0.10
2013-3-13,64,54,41,48,34,23,93,55,22,30.14,29.94,10,2,18,0.00
2013-3-14,56,45,34,32,24,19,86,46,25,30.31,30.12,6,1,12,0.00
2013-3-15,68,49,30,44,32,23,95,61,25,30.25,30.04,6,0,13,0.00
2013-3-16,81,66,53,49,45,41,75,50,24,30.04,29.83,12,2,17,0.00
2013-3-17,79,65,50,57,50,46,88,61,37,30.05,29.93,6,1,13,0.00
2013-3-18,63,58,54,60,54,50,98,87,68,30.12,29.87,5,1,9,0.05
2013-3-19,73,60,47,57,51,39,98,77,29,30.02,29.82,7,1,12,0.04
2013-3-20,63,50,38,44,33,19,93,60,19,30.13,29.85,5,0,9,0.00
2013-3-21,57,46,35,36,27,19,94,54,23,29.96,29.78,8,2,13,0.00
2013-3-22,55,43,31,39,25,16,77,52,24,30.13,29.97,6,0,7,0.00
2013-3-23,50,45,38,48,42,37,97,91,73,30.08,29.92,2,0,5,0.34
2013-3-24,64,52,45,62,51,44,98,96,91,29.91,29.46,8,1,14,1.92
2013-3-25,55,48,44,45,34,24,97,61,34,29.95,29.59,16,5,27,0.00
2013-3-26,52,43,34,32,27,24,87,55,36,30.18,29.95,8,2,19,0.00
2013-3-27,59,43,30,34,29,24,95,65,29,30.28,30.18,7,1,13,0.00
2013-3-28,61,45,29,33,28,23,93,59,24,30.31,30.20,4,1,11,0.00
2013-3-29,64,47,30,38,31,24,94,62,23,30.37,30.24,5,1,11,0.00
2013-3-30,69,56,46,53,48,42,93,76,54,30.27,30.10,7,1,10,0.00
2013-3-31,76,63,50,59,55,48,95,78,50,30.12,29.90,7,1,15,0.07
2013-4-1,76,65,54,62,58,53,98,81,50,29.94,29.86,7,1,15,0.21
2013-4-2,68,56,47,53,44,37,97,68,36,30.17,29.94,6,1,8,0.00
2013-4-3,66,55,44,52,44,37,98,71,35,30.27,30.09,5,1,9,0.00
2013-4-4,60,53,50,59,50,38,97,89,56,30.28,29.84,7,2,15,0.94
2013-4-5,61,50,44,52,47,43,97,89,66,30.05,29.87,5,1,10,0.03
2013-4-6,70,53,40,50,44,39,99,76,35,30.27,30.05,9,1,12,0.00
2013-4-7,74,61,46,57,53,45,98,77,48,30.28,30.17,6,1,9,0.00
2013-4-8,82,63,49,63,56,49,99,80,43,30.22,30.13,3,0,7,0.00
2013-4-9,85,68,55,67,60,54,99,78,42,30.25,30.14,4,0,7,0.00
2013-4-10,84,70,57,67,61,56,99,78,46,30.19,30.05,4,1,8,0.00
2013-4-11,84,71,58,72,66,57,99,85,59,30.04,29.87,4,1,14,0.00
2013-4-12,83,72,68,74,70,67,99,92,70,29.88,29.74,9,1,19,0.68
2013-4-13,77,65,52,68,53,45,99,71,33,30.05,29.83,5,1,8,0.00
2013-4-14,76,62,49,64,57,49,99,86,48,30.11,29.98,5,0,7,0.08
2013-4-15,74,68,62,65,63,61,98,86,66,30.18,29.89,8,1,11,0.74
2013-4-16,80,68,56,66,61,56,99,82,53,30.27,30.18,5,0,6,0.00
2013-4-17,82,67,56,68,61,56,99,84,55,30.26,30.16,3,0,6,0.00
2013-4-18,80,69,58,69,64,57,99,85,57,30.18,30.06,5,1,10,0.00
2013-4-19,82,73,67,74,70,67,99,90,68,30.05,29.87,6,1,15,0.66
2013-4-20,68,57,45,68,51,43,98,84,55,30.26,29.93,3,1,10,0.26
2013-4-21,68,56,41,52,45,41,99,72,50,30.39,30.26,10,2,16,0.00
2013-4-22,70,57,47,52,46,35,83,67,52,30.36,30.16,6,1,10,0.00
2013-4-23,70,58,51,57,52,49,97,81,60,30.23,30.15,7,1,8,0.00
2013-4-24,80,64,46,61,55,45,99,78,46,30.21,30.08,3,0,8,0.00
2013-4-25,82,67,59,66,63,59,99,89,57,30.26,30.10,4,0,5,1.17
2013-4-26,73,63,52,61,52,36,99,73,28,30.41,30.25,10,1,10,0.00
2013-4-27,74,62,50,61,52,44,98,75,36,30.36,30.26,4,0,7,0.00
2013-4-28,74,65,53,67,61,52,99,87,67,30.25,30.07,4,1,7,0.00
2013-4-29,76,66,62,70,65,62,99,95,79,30.09,29.99,4,0,8,1.58
2013-4-30,74,67,60,68,64,60,99,92,69,30.12,29.98,3,0,6,0.01
2013-5-1,75,65,58,64,61,58,99,88,64,30.20,30.10,4,1,6,0.00
2013-5-2,73,67,63,65,62,59,94,85,71,30.21,30.15,8,2,13,0.00
2013-5-3,70,63,59,63,57,45,97,81,53,30.15,30.08,8,1,14,0.05
2013-5-4,65,60,55,59,56,48,90,85,68,30.07,29.96,6,2,13,0.01
2013-5-5,73,65,60,65,62,58,96,88,65,29.96,29.84,7,2,13,0.14
2013-5-6,79,68,56,65,59,51,98,75,41,29.93,29.83,5,1,8,0.01
2013-5-7,71,60,52,62,56,52,98,87,59,29.99,29.91,4,0,9,0.17
2013-5-8,80,66,50,63,58,50,99,78,45,30.05,29.97,4,0,11,0.01
2013-5-9,85,71,59,65,61,59,98,75,44,30.11,30.02,5,0,9,0.00
2013-5-10,89,73,58,69,62,58,99,73,40,30.11,30.02,4,0,10,0.00
2013-5-11,84,75,66,72,66,60,98,77,45,30.05,29.88,3,0,8,0.00
2013-5-12,82,74,58,68,61,51,92,68,37,30.00,29.85,6,1,10,0.00
2013-5-13,73,62,50,54,45,38,91,58,28,30.16,30.00,5,1,11,0.00
2013-5-14,76,61,46,53,46,40,93,64,27,30.28,30.15,4,0,7,0.00
2013-5-15,88,70,54,65,58,53,97,70,38,30.18,30.01,5,1,9,0.00
2013-5-16,86,74,60,69,64,58,94,73,49,30.07,30.00,4,0,8,0.00
2013-5-17,90,76,63,69,65,63,97,73,40,30.13,30.05,3,0,8,0.00
2013-5-18,89,74,64,71,66,59,98,78,40,30.18,30.09,4,0,8,0.00
2013-5-19,86,74,68,71,69,66,98,85,54,30.16,30.09,3,0,8,0.01
2013-5-20,76,72,68,74,71,67,99,96,91,30.16,30.06,2,0,7,0.92
2013-5-21,83,73,67,75,70,67,100,91,72,30.10,30.01,2,0,5,0.00
2013-5-22,87,75,64,74,69,64,100,84,60,30.05,29.95,4,0,5,0.00
2013-5-23,86,74,65,76,70,64,99,88,62,29.99,29.85,6,0,14,0.66
2013-5-24,82,72,55,68,60,40,99,71,26,30.18,29.85,4,1,10,0.00
2013-5-25,78,63,47,56,47,38,95,61,25,30.31,30.18,4,0,8,0.00
2013-5-26,83,67,54,65,58,53,98,77,41,30.28,30.18,3,0,5,0.00
2013-5-27,82,71,58,70,64,58,99,80,53,30.27,30.19,5,1,6,0.00
2013-5-28,89,77,64,72,66,63,97,72,48,30.27,30.21,3,0,7,0.00
2013-5-29,86,73,62,72,66,62,99,82,55,30.28,30.17,3,0,6,0.00
2013-5-30,87,74,60,73,68,60,99,82,56,30.29,30.20,4,0,7,0.00
2013-5-31,85,75,64,76,70,64,99,85,62,30.24,30.16,5,0,6,0.07
2013-6-1,89,76,63,74,68,63,99,80,53,30.18,30.10,3,0,7,0.00
2013-6-2,89,76,65,75,71,65,99,87,58,30.13,29.98,4,0,8,0.63
2013-6-3,84,76,71,79,74,71,99,95,81,29.97,29.89,5,0,7,0.86
2013-6-4,87,76,69,77,73,68,100,90,66,30.07,29.93,3,0,7,0.01
2013-6-5,79,76,73,76,74,72,99,95,87,30.07,29.99,3,1,7,0.41
2013-6-6,83,76,72,78,74,71,100,94,81,30.00,29.76,3,0,5,1.79
2013-6-7,84,77,73,75,74,73,99,92,71,29.88,29.55,8,1,14,0.58
2013-6-8,89,80,73,78,74,71,100,84,58,30.12,29.88,5,0,8,0.00
2013-6-9,86,79,73,82,76,72,100,90,74,30.16,30.09,2,0,9,0.08
2013-6-10,89,79,70,79,75,69,99,88,70,30.14,29.99,4,0,13,0.23
2013-6-11,88,78,70,77,74,69,100,87,65,30.04,29.93,5,0,11,0.00
2013-6-12,96,83,71,83,75,71,100,80,51,30.00,29.92,4,0,6,0.00
2013-6-13,96,86,77,82,77,74,99,78,53,29.93,29.72,7,0,12,0.00
2013-6-14,87,79,66,77,66,58,94,67,40,30.01,29.73,4,0,8,0.00
2013-6-15,85,74,61,68,62,50,99,70,31,30.15,30.02,4,0,6,0.00
2013-6-16,90,75,61,71,65,61,99,74,43,30.19,30.08,3,0,6,0.00
2013-6-17,91,78,66,77,72,65,99,83,56,30.11,29.98,4,0,7,0.06
2013-6-18,90,79,72,80,74,68,99,87,65,30.02,29.85,6,0,9,0.48
2013-6-19,83,77,73,77,75,72,98,93,81,30.07,29.89,3,0,5,0.36
2013-6-20,84,74,68,74,69,59,99,85,47,30.19,30.06,6,1,9,1.34
2013-6-21,85,74,64,74,69,62,97,84,64,30.20,30.13,4,1,7,0.00
2013-6-22,86,76,68,76,72,67,99,89,67,30.18,30.11,2,0,4,0.08
2013-6-23,88,78,70,79,74,70,100,88,63,30.21,30.14,2,0,5,0.00
2013-6-24,88,79,74,79,76,73,99,90,72,30.25,30.16,4,0,7,0.04
2013-6-25,93,80,74,80,76,72,99,88,59,30.18,30.07,4,0,6,0.06
2013-6-26,90,78,72,78,74,71,100,88,61,30.09,29.97,3,0,9,0.05
2013-6-27,93,80,72,82,76,69,99,89,61,30.01,29.81,3,0,7,0.04
2013-6-28,93,83,76,82,78,74,97,86,59,29.85,29.68,3,0,9,0.00
2013-6-29,90,79,72,80,75,71,98,88,65,29.79,29.70,4,0,10,0.14
2013-6-30,83,76,71,80,75,70,99,96,86,29.88,29.75,2,0,10,0.80
2013-7-1,85,77,71,80,76,70,100,97,83,30.04,29.85,2,0,11,1.55
2013-7-2,83,77,74,79,76,74,100,96,83,30.18,30.03,2,0,6,0.19
2013-7-3,89,80,74,81,77,74,100,91,71,30.25,30.15,4,0,11,0.08
2013-7-4,88,80,75,80,77,75,100,90,73,30.26,30.20,3,0,8,0.06
2013-7-5,90,80,73,81,76,73,100,88,69,30.25,30.19,5,0,6,0.05
2013-7-6,88,78,72,80,74,71,100,88,67,30.25,30.16,3,0,7,0.06
2013-7-7,91,79,69,79,73,68,100,84,63,30.21,30.12,3,0,6,0.00
2013-7-8,91,79,69,79,74,69,100,84,60,30.21,30.14,2,0,4,0.00
2013-7-9,92,80,71,78,74,70,100,83,55,30.21,30.12,3,0,7,0.00
2013-7-10,93,81,72,79,74,72,99,83,56,30.15,29.99,3,0,6,0.00
2013-7-11,93,80,72,79,75,72,99,84,56,30.03,29.90,8,0,8,0.00
2013-7-12,80,76,73,77,74,72,98,96,88,29.98,29.89,1,0,2,0.13
2013-7-13,88,79,73,80,76,73,99,91,70,30.11,29.95,4,0,8,0.42
2013-7-14,88,80,72,79,76,72,99,88,67,30.24,30.12,4,1,10,0.22
2013-7-15,89,80,75,79,76,74,99,89,67,30.27,30.22,4,0,9,0.12
2013-7-16,92,81,72,80,75,72,100,84,60,30.29,30.21,2,0,4,0.00
2013-7-17,98,80,72,81,75,71,99,85,45,30.23,30.10,5,0,6,0.00
2013-7-18,94,80,70,80,75,70,99,86,57,30.17,30.09,3,0,4,0.00
2013-7-19,92,80,70,80,75,70,100,85,63,30.15,30.03,5,0,7,0.00
2013-7-20,88,79,74,81,76,73,98,90,69,30.10,30.01,3,0,7,0.33
2013-7-21,88,77,72,80,75,72,99,92,72,30.07,29.96,2,0,6,0.15
2013-7-22,90,80,73,79,76,73,99,87,67,30.02,29.91,3,0,9,0.00
2013-7-23,89,80,74,78,75,73,96,86,66,29.94,29.80,3,0,9,0.00
2013-7-24,86,80,74,79,76,73,99,89,75,29.84,29.76,2,0,4,0.00
2013-7-25,92,81,72,78,74,71,99,83,58,29.99,29.79,3,0,5,0.00
2013-7-26,88,79,70,78,74,70,99,86,67,30.08,29.99,4,0,7,0.00
2013-7-27,91,79,69,79,74,69,100,86,61,30.07,29.94,4,0,7,0.00
2013-7-28,90,79,71,80,75,70,99,91,70,30.04,29.94,3,0,5,0.26
2013-7-29,93,78,72,81,75,71,100,91,63,30.16,30.02,3,0,12,1.63
2013-7-30,90,79,72,81,76,72,100,90,67,30.20,30.12,2,0,6,0.00
2013-7-31,89,77,71,80,75,70,100,95,71,30.14,30.03,2,0,4,1.99
2013-8-1,84,78,74,79,76,73,99,93,78,30.03,29.94,3,0,6,0.17
2013-8-2,91,80,72,82,77,72,100,89,70,30.06,29.95,3,0,7,0.02
2013-8-3,93,81,73,81,77,72,100,89,64,30.06,29.95,1,0,4,0.06
2013-8-4,94,82,73,80,76,73,100,83,56,30.02,29.90,3,0,5,0.00
2013-8-5,87,78,69,75,70,65,99,79,52,30.07,29.99,4,1,9,0.00
2013-8-6,90,77,66,74,70,66,98,82,55,30.07,29.98,2,0,6,0.00
2013-8-7,88,77,68,76,72,68,99,86,60,30.09,30.03,4,0,6,0.00
2013-8-8,91,79,70,82,76,70,99,90,65,30.09,30.02,2,0,4,1.47
2013-8-9,92,82,73,82,77,73,100,86,63,30.13,30.03,4,0,6,0.00
2013-8-10,93,82,72,81,77,72,100,85,55,30.14,30.07,2,0,7,0.00
2013-8-11,96,84,75,81,78,74,99,82,54,30.15,30.06,3,0,7,0.00
2013-8-12,96,85,76,81,78,76,98,81,54,30.10,29.97,2,0,6,0.00
2013-8-13,95,85,77,81,78,75,96,82,58,29.99,29.84,5,0,7,0.00
2013-8-14,84,78,70,79,76,69,98,94,79,30.03,29.85,3,0,6,0.51
2013-8-15,70,67,64,70,66,63,99,98,96,30.11,30.01,1,0,5,1.32
2013-8-16,76,70,66,74,70,66,99,96,91,30.11,30.03,3,0,8,1.13
2013-8-17,79,73,69,75,72,69,99,96,85,30.17,30.04,2,0,4,0.03
2013-8-18,92,78,70,79,74,70,100,89,56,30.21,30.12,2,0,3,0.01
2013-8-19,92,79,73,81,76,73,100,92,64,30.16,30.07,2,0,4,0.06
2013-8-20,89,77,73,82,76,73,100,96,75,30.18,30.08,2,0,4,0.98
2013-8-21,92,80,72,82,76,72,100,89,63,30.23,30.12,2,0,4,0.00
2013-8-22,92,82,72,80,76,72,99,85,64,30.17,30.04,3,0,6,0.00
2013-8-23,92,80,72,80,76,72,100,87,57,30.06,29.96,5,0,7,0.00
2013-8-24,84,77,70,75,72,68,99,86,69,30.24,30.02,4,0,7,0.00
2013-8-25,83,73,64,70,66,63,99,81,56,30.32,30.23,4,0,7,0.00
2013-8-26,85,73,64,70,66,63,98,80,50,30.28,30.14,3,0,6,0.00
2013-8-27,87,74,62,73,67,62,100,83,52,30.16,30.02,5,0,5,0.00
2013-8-28,91,77,68,76,71,67,99,82,55,30.04,29.96,2,0,6,0.00
2013-8-29,93,81,72,82,75,71,97,83,60,29.97,29.86,3,0,8,0.00
2013-8-30,87,78,73,77,75,72,98,88,65,30.03,29.94,4,0,7,0.00
2013-8-31,91,79,71,80,75,71,100,90,65,29.99,29.90,4,0,5,0.30
2013-9-1,94,82,73,81,77,73,100,86,57,29.97,29.86,2,0,8,0.00
2013-9-2,92,82,76,81,77,71,99,86,65,29.95,29.83,4,0,7,0.00
2013-9-3,92,80,72,79,74,70,97,84,61,29.96,29.84,7,0,7,0.00
2013-9-4,93,81,71,80,76,70,99,85,63,30.08,29.95,2,0,6,0.00
2013-9-5,94,81,72,79,75,72,99,84,56,30.10,30.02,1,0,5,0.00
2013-9-6,90,77,68,72,69,64,99,79,43,30.11,30.03,2,0,6,0.00
2013-9-7,87,76,68,74,70,67,99,83,54,30.10,29.99,3,0,7,0.00
2013-9-8,91,76,63,76,70,63,100,83,53,30.02,29.91,2,0,5,0.00
2013-9-9,90,78,67,77,72,67,99,83,60,30.15,29.99,3,0,7,0.00
2013-9-10,89,79,69,76,71,67,99,78,49,30.23,30.14,6,1,7,0.00
2013-9-11,90,78,70,77,71,65,99,82,47,30.20,30.11,6,0,8,0.00
2013-9-12,92,77,66,76,71,66,100,82,49,30.11,29.89,3,0,5,0.00
2013-9-13,91,79,71,77,73,71,99,84,56,29.89,29.75,3,0,4,0.00
2013-9-14,83,74,65,72,68,62,97,82,67,30.08,29.82,5,0,7,0.00
2013-9-15,87,75,66,76,71,65,98,88,71,30.18,30.08,4,1,9,0.00
2013-9-16,87,76,70,77,73,69,99,89,66,30.15,30.04,2,0,4,0.01
2013-9-17,83,73,67,72,65,62,99,77,49,30.23,30.09,3,1,8,0.00
2013-9-18,78,68,57,64,59,54,93,76,45,30.25,30.15,3,0,7,0.00
2013-9-19,84,70,59,66,62,57,96,77,40,30.18,30.09,3,0,6,0.00
2013-9-20,85,72,60,70,65,60,99,82,55,30.10,29.97,2,0,6,0.00
2013-9-21,87,75,64,75,70,64,99,85,59,29.98,29.74,7,0,7,0.00
2013-9-22,76,73,66,73,70,66,98,91,80,29.88,29.70,2,0,6,0.25
2013-9-23,80,68,59,66,62,58,100,82,49,30.06,29.88,3,0,5,0.01
2013-9-24,78,66,56,64,59,56,99,82,50,30.08,29.95,4,0,6,0.00
2013-9-25,79,69,60,69,65,59,98,89,72,29.95,29.83,3,0,7,0.59
2013-9-26,79,68,61,69,65,59,99,89,67,29.97,29.83,3,0,7,0.44
2013-9-27,79,67,58,65,61,57,98,82,56,30.13,29.97,5,0,10,0.00
2013-9-28,77,66,57,65,60,56,96,84,64,30.17,30.09,6,0,8,0.00
2013-9-29,77,65,57,62,59,56,98,81,51,30.12,30.02,5,0,8,0.00
2013-9-30,77,63,51,65,59,51,99,86,54,30.08,30.00,2,0,3,0.00
2013-10-1,81,66,54,65,59,54,100,80,48,30.15,30.05,3,0,6,0.01
2013-10-2,85,68,54,67,61,54,100,81,44,30.16,30.07,2,0,7,0.00
2013-10-3,83,70,58,72,66,57,99,88,58,30.16,30.10,2,0,5,0.00
2013-10-4,86,73,63,75,68,63,99,87,58,30.15,30.07,4,0,5,0.00
2013-10-5,87,73,62,74,67,62,100,85,51,30.14,30.06,3,0,6,0.00
2013-10-6,84,74,65,77,71,65,100,92,75,30.07,29.95,3,0,6,0.00
2013-10-7,80,74,72,77,74,72,99,97,86,29.95,29.82,4,0,12,1.61
2013-10-8,73,65,58,73,63,57,99,95,89,30.10,29.87,6,1,20,0.16
2013-10-9,73,64,57,64,60,56,97,86,72,30.09,30.03,3,0,9,0.00
2013-10-10,72,65,58,63,60,56,94,84,72,30.05,29.96,3,0,8,0.00
2013-10-11,80,70,64,69,65,62,97,86,64,30.01,29.91,3,0,6,0.00
2013-10-12,80,71,65,71,67,64,98,87,63,30.07,29.95,3,0,5,0.00
2013-10-13,73,68,62,69,66,62,99,94,84,30.14,30.06,1,0,6,0.00
2013-10-14,77,70,67,69,67,64,95,89,75,30.14,30.07,6,1,11,0.00
2013-10-15,75,67,62,66,63,59,96,88,71,30.13,30.02,2,0,6,0.00
2013-10-16,75,67,60,67,65,60,99,92,75,30.06,29.98,2,0,4,0.00
2013-10-17,81,68,57,70,64,56,100,88,65,30.00,29.90,4,0,5,0.00
2013-10-18,82,72,64,75,69,64,100,93,77,30.00,29.91,2,0,3,0.00
2013-10-19,81,72,68,76,70,65,99,93,79,29.96,29.87,2,0,6,0.24
2013-10-20,70,64,56,65,59,55,98,85,64,30.09,29.91,4,0,7,0.00
2013-10-21,70,61,54,63,58,53,97,90,74,30.14,30.03,1,0,4,0.00
2013-10-22,69,63,59,64,61,58,99,94,81,30.04,29.86,0,0,1,0.07
2013-10-23,72,62,51,64,55,44,100,79,37,30.03,29.77,6,1,12,0.04
2013-10-24,66,50,39,48,42,38,97,76,44,30.20,30.04,2,0,5,0.00
2013-10-25,61,50,40,47,42,38,99,78,43,30.37,30.16,4,0,8,0.00
2013-10-26,66,48,35,50,41,34,98,80,48,30.36,30.16,4,0,6,0.00
2013-10-27,73,54,40,58,48,40,98,83,50,30.16,30.08,2,0,4,0.00
2013-10-28,73,59,50,64,57,49,99,92,66,30.28,30.14,1,0,2,0.00
2013-10-29,74,60,48,63,56,48,100,87,54,30.34,30.25,2,0,4,0.01
2013-10-30,76,61,50,66,57,50,100,88,57,30.34,30.20,2,0,4,0.00
2013-10-31,80,66,52,69,62,52,100,90,66,30.23,30.00,4,0,11,0.01
2013-11-1,80,73,67,73,70,66,99,90,73,30.00,29.77,3,0,11,0.26
2013-11-2,71,65,52,71,62,51,99,91,66,29.96,29.74,3,0,7,0.74
2013-11-3,64,53,44,51,46,42,99,81,46,30.32,29.96,4,0,7,0.01
2013-11-4,63,51,42,47,43,40,98,75,46,30.46,30.31,10,0,12,0.00
2013-11-5,63,53,42,59,50,39,97,91,78,30.46,30.34,4,0,6,0.01
2013-11-6,74,64,52,66,61,52,99,90,75,30.35,30.11,5,0,6,0.18
2013-11-7,74,67,58,69,65,51,99,94,78,30.11,29.94,1,0,8,0.18
2013-11-8,58,50,38,48,39,33,98,69,39,30.32,30.07,2,0,8,0.00
2013-11-9,63,50,36,54,45,35,98,85,61,30.37,30.24,2,0,3,0.00
2013-11-10,67,56,46,56,51,45,98,86,54,30.26,30.14,3,0,5,0.00
2013-11-11,62,51,42,50,43,38,99,79,44,30.32,30.18,3,0,10,0.00
2013-11-12,69,54,41,53,44,32,99,73,42,30.38,30.02,7,1,23,0.00
2013-11-13,47,38,28,33,28,23,95,70,40,30.53,30.38,4,0,15,0.00
2013-11-14,58,41,26,44,33,25,97,78,33,30.52,30.36,2,0,5,0.00
2013-11-15,65,55,38,61,53,38,98,93,80,30.36,30.18,2,0,4,0.00
2013-11-16,75,62,54,66,59,53,99,91,66,30.24,30.17,4,0,6,0.01
2013-11-17,75,63,52,71,62,51,100,97,85,30.20,30.01,2,0,4,0.02
2013-11-18,81,72,61,73,68,51,99,90,69,30.00,29.82,7,0,8,0.01
2013-11-19,60,52,43,50,39,33,88,63,38,30.23,29.93,5,0,10,0.00
2013-11-20,59,50,42,48,42,37,85,76,64,30.36,30.23,4,0,8,0.00
2013-11-21,70,58,50,63,54,46,98,86,72,30.41,30.33,3,0,6,0.00
2013-11-22,74,65,57,69,63,57,99,95,80,30.35,30.16,1,0,4,0.04
2013-11-23,67,62,54,66,62,53,99,98,96,30.15,30.02,2,0,6,0.27
2013-11-24,53,40,28,52,26,16,95,60,32,30.54,30.13,5,1,15,0.00
2013-11-25,48,37,25,37,25,13,83,63,35,30.58,30.29,4,0,8,0.00
2013-11-26,71,58,37,71,57,34,100,96,85,30.29,29.62,4,1,11,2.33
2013-11-27,68,54,35,68,53,31,99,96,86,30.22,29.50,8,1,16,0.11
2013-11-28,45,35,28,33,27,22,98,74,44,30.51,30.23,3,0,8,0.00
2013-11-29,55,40,29,40,33,29,99,79,40,30.56,30.48,4,0,6,0.01
2013-11-30,57,44,32,47,38,30,93,81,65,30.56,30.34,4,0,6,0.00
2013-12-1,60,52,43,55,49,42,98,90,79,30.33,30.02,0,0,3,0.00
2013-12-2,60,52,42,55,50,42,99,93,69,30.01,29.84,2,0,5,0.00
2013-12-3,65,53,42,55,50,41,99,89,59,30.02,29.90,1,0,3,0.12
2013-12-4,74,62,54,67,60,54,100,94,75,30.12,30.00,2,0,6,0.07
2013-12-5,78,65,53,69,62,53,100,91,68,30.18,30.10,4,0,5,0.01
2013-12-6,80,70,66,71,68,66,99,90,69,30.17,30.08,3,0,8,0.00
2013-12-7,77,61,47,71,60,46,98,95,81,30.38,30.10,5,0,9,0.10
2013-12-8,46,44,42,46,44,42,98,98,96,30.38,30.28,2,0,6,0.04
2013-12-9,71,54,43,68,53,42,99,97,86,30.28,30.07,3,0,6,0.00
2013-12-10,74,62,43,70,60,42,100,93,76,30.33,29.95,9,1,21,0.07
2013-12-11,53,42,32,42,35,26,99,80,36,30.48,30.32,3,0,7,0.01
2013-12-12,51,40,29,38,32,27,99,78,40,30.42,30.29,4,0,8,0.00
2013-12-13,54,40,26,41,32,23,99,78,31,30.44,30.29,3,0,5,0.01
2013-12-14,71,59,45,68,58,42,99,94,74,30.27,29.79,5,0,12,0.69
2013-12-15,66,55,40,65,52,40,98,90,73,30.13,29.76,6,1,20,0.04
2013-12-16,57,43,32,45,39,32,99,86,50,30.24,30.13,3,0,5,0.01
2013-12-17,65,48,35,44,39,35,100,75,37,30.22,30.08,5,0,10,0.00
2013-12-18,55,44,32,40,35,30,97,74,40,30.35,30.09,2,0,5,0.00
2013-12-19,63,44,29,48,38,29,99,83,47,30.39,30.27,1,0,4,0.00
2013-12-20,73,56,42,61,53,42,99,89,62,30.28,30.18,5,0,7,0.00
2013-12-21,77,64,51,70,62,50,100,92,77,30.20,30.10,2,0,7,0.00
2013-12-22,81,72,68,72,69,67,99,89,72,30.15,30.09,6,1,15,0.00
2013-12-23,80,71,60,72,68,60,99,92,69,30.14,30.04,5,0,9,0.30
2013-12-24,60,50,36,60,46,34,99,85,55,30.41,30.07,3,0,10,0.07
2013-12-25,48,38,29,34,29,24,88,73,52,30.52,30.35,3,0,5,0.00
2013-12-26,48,42,35,45,39,30,98,88,79,30.36,30.26,2,0,5,0.01
2013-12-27,56,43,35,40,37,34,98,80,45,30.45,30.33,3,0,6,0.00
2013-12-28,61,47,30,54,40,30,98,80,39,30.42,30.09,3,0,5,0.20
2013-12-29,72,63,51,69,62,50,100,94,74,30.07,29.80,7,1,14,0.77
2013-12-30,52,48,41,50,47,41,100,97,92,30.18,29.98,2,0,3,0.00
2013-12-31,56,49,41,48,46,41,99,89,62,30.40,30.15,3,0,8,0.00
2014-1-1,52,44,38,46,42,38,99,93,69,30.41,30.16,3,0,5,0.22
2014-1-2,58,51,46,58,51,46,100,98,83,30.16,29.65,12,0,15,0.67